createdAt,value
2022-12-17T00:00:02.293Z,0.00
2022-12-17T00:01:02.451Z,0.00
2022-12-17T00:02:02.276Z,0.00
2022-12-17T00:03:02.338Z,0.00
2022-12-17T00:04:02.392Z,0.00
2022-12-17T00:05:02.263Z,0.00
2022-12-17T00:06:02.261Z,0.00
2022-12-17T00:07:02.280Z,0.00
2022-12-17T00:08:02.196Z,0.00
2022-12-17T00:09:02.242Z,0.00
2022-12-17T00:10:02.179Z,0.00
2022-12-17T00:11:02.185Z,0.00
2022-12-17T00:12:02.178Z,0.00
2022-12-17T00:13:02.211Z,0.00
2022-12-17T00:14:02.126Z,0.00
2022-12-17T00:15:02.133Z,0.00
2022-12-17T00:16:02.155Z,0.00
2022-12-17T00:17:02.121Z,0.00
2022-12-17T00:18:02.828Z,0.00
2022-12-17T00:19:02.151Z,0.00
2022-12-17T00:20:02.053Z,0.00
2022-12-17T00:21:02.092Z,0.00
2022-12-17T00:22:02.027Z,0.00
2022-12-17T00:23:02.036Z,0.00
2022-12-17T00:24:02.032Z,0.00
2022-12-17T00:25:02.107Z,0.00
2022-12-17T00:26:02.001Z,0.00
2022-12-17T00:27:02.023Z,0.00
2022-12-17T00:28:01.976Z,0.00
2022-12-17T00:29:01.977Z,0.00
2022-12-17T00:30:01.955Z,0.00
2022-12-17T00:31:02.027Z,0.00
2022-12-17T00:32:01.900Z,0.00
2022-12-17T00:33:01.944Z,0.00
2022-12-17T00:34:02.137Z,0.00
2022-12-17T00:35:01.890Z,0.00
2022-12-17T00:36:01.875Z,0.00
2022-12-17T00:37:01.987Z,0.00
2022-12-17T00:38:01.895Z,0.00
2022-12-17T00:39:01.874Z,0.00
2022-12-17T00:40:02.545Z,0.00
2022-12-17T00:41:01.846Z,0.00
2022-12-17T00:42:01.783Z,0.00
2022-12-17T00:43:01.907Z,0.00
2022-12-17T00:44:01.784Z,0.00
2022-12-17T00:45:01.799Z,0.00
2022-12-17T00:46:01.738Z,0.00
2022-12-17T00:47:01.822Z,0.00
2022-12-17T00:48:01.725Z,0.00
2022-12-17T00:49:01.757Z,0.00
2022-12-17T00:50:01.751Z,0.00
2022-12-17T00:51:01.729Z,0.00
2022-12-17T00:52:01.652Z,0.00
2022-12-17T00:53:01.701Z,0.00
2022-12-17T00:54:01.629Z,0.00
2022-12-17T00:55:01.673Z,0.00
2022-12-17T00:56:01.627Z,0.00
2022-12-17T00:57:01.633Z,0.00
2022-12-17T00:58:01.617Z,0.00
2022-12-17T00:59:02.338Z,0.00
2022-12-17T01:00:01.563Z,0.00
2022-12-17T01:01:01.705Z,0.00
2022-12-17T01:02:01.653Z,0.00
2022-12-17T01:03:01.589Z,0.00
2022-12-17T01:04:01.540Z,0.00
2022-12-17T01:05:01.529Z,0.00
2022-12-17T01:06:01.508Z,0.00
2022-12-17T01:07:01.646Z,0.00
2022-12-17T01:08:01.462Z,0.00
2022-12-17T01:09:01.511Z,0.00
2022-12-17T01:10:01.436Z,0.00
2022-12-17T01:11:01.441Z,0.00
2022-12-17T01:12:01.432Z,0.00
2022-12-17T01:13:01.471Z,0.00
2022-12-17T01:14:01.431Z,0.00
2022-12-17T01:15:01.425Z,0.00
2022-12-17T01:16:01.400Z,0.00
2022-12-17T01:17:01.374Z,0.00
2022-12-17T01:18:01.366Z,0.00
2022-12-17T01:19:01.430Z,0.00
2022-12-17T01:20:01.306Z,0.00
2022-12-17T01:21:01.354Z,0.00
2022-12-17T01:22:01.286Z,0.00
2022-12-17T01:23:01.311Z,0.00
2022-12-17T01:24:01.313Z,0.00
2022-12-17T01:25:01.406Z,0.00
2022-12-17T01:26:01.270Z,0.00
2022-12-17T01:27:01.281Z,0.00
2022-12-17T01:28:01.214Z,0.00
2022-12-17T01:29:01.267Z,0.00
2022-12-17T01:30:01.189Z,0.00
2022-12-17T01:31:01.230Z,0.00
2022-12-17T01:32:01.223Z,0.00
2022-12-17T01:33:01.211Z,0.00
2022-12-17T01:34:01.135Z,0.00
2022-12-17T01:35:01.159Z,0.00
2022-12-17T01:36:01.146Z,0.00
2022-12-17T01:37:01.276Z,0.00
2022-12-17T01:38:01.117Z,0.00
2022-12-17T01:39:01.135Z,0.00
2022-12-17T01:40:01.059Z,0.00
2022-12-17T01:41:01.109Z,0.00
2022-12-17T01:42:01.038Z,0.00
2022-12-17T01:43:01.169Z,0.00
2022-12-17T01:44:01.043Z,0.00
2022-12-17T01:45:01.038Z,0.00
2022-12-17T01:46:01.043Z,0.00
2022-12-17T01:47:01.035Z,0.00
2022-12-17T01:48:00.962Z,0.00
2022-12-17T01:49:01.009Z,0.00
2022-12-17T01:50:01.924Z,0.00
2022-12-17T01:51:00.985Z,0.00
2022-12-17T01:52:00.922Z,0.00
2022-12-17T01:53:00.964Z,0.00
2022-12-17T01:54:00.891Z,0.00
2022-12-17T01:55:01.050Z,0.00
2022-12-17T01:56:00.885Z,0.00
2022-12-17T01:57:00.881Z,0.00
2022-12-17T01:58:00.867Z,0.00
2022-12-17T01:59:00.889Z,0.00
2022-12-17T02:00:00.810Z,0.00
2022-12-17T02:01:00.935Z,0.00
2022-12-17T02:02:01.035Z,0.00
2022-12-17T02:03:00.990Z,0.00
2022-12-17T02:04:00.790Z,0.00
2022-12-17T02:05:00.782Z,0.00
2022-12-17T02:06:00.768Z,0.00
2022-12-17T02:07:00.846Z,0.00
2022-12-17T02:08:00.747Z,0.00
2022-12-17T02:09:00.758Z,0.00
2022-12-17T02:10:00.705Z,0.00
2022-12-17T02:11:00.707Z,0.00
2022-12-17T02:12:00.696Z,0.00
2022-12-17T02:13:00.727Z,0.00
2022-12-17T02:14:00.668Z,0.00
2022-12-17T02:15:00.696Z,0.00
2022-12-17T02:16:00.660Z,0.00
2022-12-17T02:17:00.686Z,0.00
2022-12-17T02:18:00.614Z,0.00
2022-12-17T02:19:00.644Z,0.00
2022-12-17T02:20:00.592Z,0.00
2022-12-17T02:21:00.635Z,0.00
2022-12-17T02:22:00.557Z,0.00
2022-12-17T02:23:00.554Z,0.00
2022-12-17T02:24:00.554Z,0.00
2022-12-17T02:25:00.557Z,0.00
2022-12-17T02:26:00.524Z,0.00
2022-12-17T02:27:00.542Z,0.00
2022-12-17T02:28:00.470Z,0.00
2022-12-17T02:29:00.520Z,0.00
2022-12-17T02:30:00.448Z,0.00
2022-12-17T02:31:00.487Z,0.00
2022-12-17T02:32:00.541Z,0.00
2022-12-17T02:33:00.437Z,0.00
2022-12-17T02:34:00.434Z,0.00
2022-12-17T02:35:00.443Z,0.00
2022-12-17T02:36:00.387Z,0.00
2022-12-17T02:37:00.493Z,0.00
2022-12-17T02:38:00.375Z,0.00
2022-12-17T02:39:00.385Z,0.00
2022-12-17T02:40:00.326Z,0.00
2022-12-17T02:41:00.359Z,0.00
2022-12-17T02:42:00.288Z,0.00
2022-12-17T02:43:00.392Z,0.00
2022-12-17T02:44:00.314Z,0.00
2022-12-17T02:45:00.296Z,0.00
2022-12-17T02:46:01.082Z,0.00
2022-12-17T02:47:00.287Z,0.00
2022-12-17T02:48:00.949Z,0.00
2022-12-17T02:49:00.295Z,0.00
2022-12-17T02:50:00.329Z,0.00
2022-12-17T02:51:00.212Z,0.00
2022-12-17T02:52:00.195Z,0.00
2022-12-17T02:53:00.217Z,0.00
2022-12-17T02:54:00.150Z,0.00
2022-12-17T02:55:00.204Z,0.00
2022-12-17T02:56:00.156Z,0.00
2022-12-17T02:57:00.154Z,0.00
2022-12-17T02:58:00.152Z,0.00
2022-12-17T02:59:00.155Z,0.00
2022-12-17T03:00:00.109Z,0.00
2022-12-17T03:01:00.181Z,0.00
2022-12-17T03:02:00.186Z,0.00
2022-12-17T03:03:00.154Z,0.00
2022-12-17T03:04:00.052Z,0.00
2022-12-17T03:05:06.608Z,0.00
2022-12-17T03:06:01.140Z,0.00
2022-12-17T03:07:00.079Z,0.00
2022-12-17T03:07:59.997Z,0.00
2022-12-17T03:09:00.020Z,0.00
2022-12-17T03:09:59.958Z,0.00
2022-12-17T03:11:00.001Z,0.00
2022-12-17T03:11:59.991Z,0.00
2022-12-17T03:12:59.948Z,0.00
2022-12-17T03:13:59.931Z,0.00
2022-12-17T03:14:59.948Z,0.00
2022-12-17T03:15:59.878Z,0.00
2022-12-17T03:17:00.686Z,0.00
2022-12-17T03:17:59.884Z,0.00
2022-12-17T03:18:59.874Z,0.00
2022-12-17T03:19:59.859Z,0.00
2022-12-17T03:20:59.865Z,0.00
2022-12-17T03:21:59.832Z,0.00
2022-12-17T03:22:59.844Z,0.00
2022-12-17T03:23:59.816Z,0.00
2022-12-17T03:24:59.795Z,0.00
2022-12-17T03:25:59.792Z,0.00
2022-12-17T03:26:59.796Z,0.00
2022-12-17T03:27:59.735Z,0.00
2022-12-17T03:28:59.773Z,0.00
2022-12-17T03:29:59.831Z,0.00
2022-12-17T03:30:59.748Z,0.00
2022-12-17T03:31:59.703Z,0.00
2022-12-17T03:32:59.713Z,0.00
2022-12-17T03:33:59.690Z,0.00
2022-12-17T03:34:59.710Z,0.00
2022-12-17T03:35:59.666Z,0.00
2022-12-17T03:37:00.404Z,0.00
2022-12-17T03:37:59.632Z,0.00
2022-12-17T03:38:59.626Z,0.00
2022-12-17T03:39:59.610Z,0.00
2022-12-17T03:41:00.580Z,0.00
2022-12-17T03:42:00.653Z,0.00
2022-12-17T03:42:59.574Z,0.00
2022-12-17T03:43:59.559Z,0.00
2022-12-17T03:44:59.560Z,0.00
2022-12-17T03:45:59.592Z,0.00
2022-12-17T03:46:59.557Z,0.00
2022-12-17T03:47:59.535Z,0.00
2022-12-17T03:48:59.548Z,0.00
2022-12-17T03:49:59.471Z,0.00
2022-12-17T03:50:59.481Z,0.00
2022-12-17T03:51:59.469Z,0.00
2022-12-17T03:52:59.462Z,0.00
2022-12-17T03:53:59.552Z,0.00
2022-12-17T03:54:59.460Z,0.00
2022-12-17T03:55:59.392Z,0.00
2022-12-17T03:56:59.412Z,0.00
2022-12-17T03:57:59.390Z,0.00
2022-12-17T03:58:59.419Z,0.00
2022-12-17T03:59:59.385Z,0.00
2022-12-17T04:00:59.395Z,0.00
2022-12-17T04:01:59.438Z,0.00
2022-12-17T04:02:59.440Z,0.00
2022-12-17T04:03:59.312Z,0.00
2022-12-17T04:04:59.305Z,0.00
2022-12-17T04:05:59.411Z,0.00
2022-12-17T04:06:59.324Z,0.00
2022-12-17T04:07:59.247Z,0.00
2022-12-17T04:08:59.287Z,0.00
2022-12-17T04:09:59.221Z,0.00
2022-12-17T04:10:59.234Z,0.00
2022-12-17T04:11:59.341Z,0.00
2022-12-17T04:12:59.212Z,0.00
2022-12-17T04:13:59.219Z,0.00
2022-12-17T04:14:59.142Z,0.00
2022-12-17T04:15:59.225Z,0.00
2022-12-17T04:16:59.139Z,0.00
2022-12-17T04:17:59.204Z,0.00
2022-12-17T04:18:59.148Z,0.00
2022-12-17T04:19:59.116Z,0.00
2022-12-17T04:20:59.122Z,0.00
2022-12-17T04:21:59.099Z,0.00
2022-12-17T04:22:59.062Z,0.00
2022-12-17T04:23:59.206Z,0.00
2022-12-17T04:24:59.038Z,0.00
2022-12-17T04:25:59.075Z,0.00
2022-12-17T04:26:59.046Z,0.00
2022-12-17T04:27:59.028Z,0.00
2022-12-17T04:28:58.982Z,0.00
2022-12-17T04:29:59.141Z,0.00
2022-12-17T04:30:59.043Z,0.00
2022-12-17T04:31:58.967Z,0.00
2022-12-17T04:32:58.967Z,0.00
2022-12-17T04:33:58.962Z,0.00
2022-12-17T04:34:58.912Z,0.00
2022-12-17T04:35:58.978Z,0.00
2022-12-17T04:36:58.885Z,0.00
2022-12-17T04:37:58.926Z,0.00
2022-12-17T04:38:58.873Z,0.00
2022-12-17T04:39:58.886Z,0.00
2022-12-17T04:40:58.858Z,0.00
2022-12-17T04:41:58.972Z,0.00
2022-12-17T04:42:58.823Z,0.00
2022-12-17T04:44:03.007Z,0.00
2022-12-17T04:44:58.808Z,0.00
2022-12-17T04:45:58.859Z,0.00
2022-12-17T04:46:58.756Z,0.00
2022-12-17T04:47:58.815Z,0.00
2022-12-17T04:48:58.724Z,0.00
2022-12-17T04:49:58.768Z,0.00
2022-12-17T04:50:58.737Z,0.00
2022-12-17T04:51:58.712Z,0.00
2022-12-17T04:52:58.710Z,0.00
2022-12-17T04:53:58.824Z,0.00
2022-12-17T04:54:58.648Z,0.00
2022-12-17T04:55:58.692Z,0.00
2022-12-17T04:56:58.648Z,0.00
2022-12-17T04:57:58.666Z,0.00
2022-12-17T04:58:58.639Z,0.00
2022-12-17T04:59:58.745Z,0.00
2022-12-17T05:00:58.594Z,0.00
2022-12-17T05:01:58.794Z,0.00
2022-12-17T05:02:58.827Z,0.00
2022-12-17T05:03:58.634Z,0.00
2022-12-17T05:04:58.551Z,0.00
2022-12-17T05:05:58.575Z,0.00
2022-12-17T05:06:58.524Z,0.00
2022-12-17T05:07:58.544Z,0.00
2022-12-17T05:08:58.498Z,0.00
2022-12-17T05:09:58.543Z,0.00
2022-12-17T05:12:09.648Z,0.00
2022-12-17T05:13:09.482Z,0.00
2022-12-17T05:14:09.462Z,0.00
2022-12-17T05:15:09.459Z,0.00
2022-12-17T05:16:09.494Z,0.00
2022-12-17T05:17:09.413Z,0.00
2022-12-17T05:18:09.480Z,0.00
2022-12-17T05:19:09.385Z,0.00
2022-12-17T05:20:10.119Z,0.00
2022-12-17T05:21:09.370Z,0.00
2022-12-17T05:22:09.356Z,0.00
2022-12-17T05:23:09.318Z,0.00
2022-12-17T05:24:09.413Z,0.00
2022-12-17T05:25:09.321Z,0.00
2022-12-17T05:26:09.324Z,0.00
2022-12-17T05:27:09.293Z,0.00
2022-12-17T05:28:09.282Z,0.00
2022-12-17T05:29:15.407Z,0.00
2022-12-17T05:30:10.321Z,0.00
2022-12-17T05:31:09.244Z,0.00
2022-12-17T05:32:09.261Z,0.00
2022-12-17T05:33:09.225Z,0.00
2022-12-17T05:34:09.212Z,0.00
2022-12-17T05:35:09.201Z,0.00
2022-12-17T05:36:09.240Z,0.00
2022-12-17T05:37:09.141Z,0.00
2022-12-17T05:38:09.184Z,0.00
2022-12-17T05:39:09.167Z,0.00
2022-12-17T05:40:12.514Z,0.00
2022-12-17T05:41:09.098Z,0.00
2022-12-17T05:42:09.175Z,0.00
2022-12-17T05:43:09.073Z,0.00
2022-12-17T05:44:09.124Z,0.00
2022-12-17T05:45:09.076Z,0.00
2022-12-17T05:46:09.139Z,0.00
2022-12-17T05:47:09.077Z,0.00
2022-12-17T05:48:09.169Z,0.00
2022-12-17T05:49:08.998Z,0.00
2022-12-17T05:50:09.027Z,0.00
2022-12-17T05:51:09.008Z,0.00
2022-12-17T05:52:09.006Z,0.00
2022-12-17T05:53:08.974Z,0.00
2022-12-17T05:54:08.990Z,0.00
2022-12-17T05:55:08.955Z,0.00
2022-12-17T05:56:08.932Z,0.00
2022-12-17T05:57:08.893Z,0.00
2022-12-17T05:58:08.929Z,0.00
2022-12-17T05:59:08.872Z,0.00
2022-12-17T06:00:08.935Z,0.00
2022-12-17T06:01:08.878Z,0.00
2022-12-17T06:02:08.871Z,0.00
2022-12-17T06:03:08.951Z,0.00
2022-12-17T06:04:08.931Z,0.00
2022-12-17T06:05:08.791Z,0.00
2022-12-17T06:06:08.878Z,0.00
2022-12-17T06:07:08.761Z,0.00
2022-12-17T06:08:08.808Z,0.00
2022-12-17T06:09:08.768Z,0.00
2022-12-17T06:10:08.753Z,0.00
2022-12-17T06:11:08.714Z,0.00
2022-12-17T06:12:08.779Z,0.00
2022-12-17T06:13:08.721Z,0.00
2022-12-17T06:14:08.705Z,0.00
2022-12-17T06:15:08.695Z,0.00
2022-12-17T06:16:08.753Z,0.00
2022-12-17T06:17:08.642Z,0.00
2022-12-17T06:18:13.583Z,0.00
2022-12-17T06:19:09.612Z,0.00
2022-12-17T06:20:08.664Z,0.00
2022-12-17T06:21:08.619Z,0.00
2022-12-17T06:22:08.606Z,0.00
2022-12-17T06:23:08.600Z,0.00
2022-12-17T06:24:08.617Z,0.00
2022-12-17T06:25:08.533Z,0.00
2022-12-17T06:26:08.580Z,0.00
2022-12-17T06:27:08.542Z,0.00
2022-12-17T06:28:08.527Z,0.00
2022-12-17T06:29:08.485Z,0.00
2022-12-17T06:30:08.561Z,0.00
2022-12-17T06:31:08.496Z,0.00
2022-12-17T06:32:08.501Z,0.00
2022-12-17T06:33:08.471Z,0.00
2022-12-17T06:34:08.455Z,0.00
2022-12-17T06:35:08.442Z,0.00
2022-12-17T06:36:08.542Z,0.00
2022-12-17T06:37:08.386Z,0.00
2022-12-17T06:38:08.438Z,0.00
2022-12-17T06:39:08.367Z,0.00
2022-12-17T06:40:08.402Z,0.00
2022-12-17T06:41:08.363Z,0.00
2022-12-17T06:42:08.390Z,0.00
2022-12-17T06:43:08.315Z,0.00
2022-12-17T06:44:08.353Z,0.00
2022-12-17T06:45:08.322Z,0.00
2022-12-17T06:46:08.306Z,0.00
2022-12-17T06:47:09.322Z,1.00
2022-12-17T06:48:08.397Z,1.00
2022-12-17T06:49:08.237Z,1.00
2022-12-17T06:50:08.283Z,0.00
2022-12-17T06:51:08.208Z,0.00
2022-12-17T06:52:08.932Z,0.00
2022-12-17T06:53:08.214Z,2.00
2022-12-17T06:54:08.358Z,2.00
2022-12-17T06:55:08.195Z,6.00
2022-12-17T06:56:08.176Z,4.00
2022-12-17T06:57:08.141Z,0.00
2022-12-17T06:58:08.177Z,2.00
2022-12-17T06:59:08.138Z,1.00
2022-12-17T07:00:08.164Z,5.00
2022-12-17T07:01:08.178Z,3.00
2022-12-17T07:02:08.157Z,9.00
2022-12-17T07:03:14.463Z,3.00
2022-12-17T07:04:09.049Z,7.00
2022-12-17T07:05:08.060Z,10.00
2022-12-17T07:06:08.079Z,6.00
2022-12-17T07:07:08.039Z,12.00
2022-12-17T07:08:08.027Z,8.00
2022-12-17T07:09:08.035Z,11.00
2022-12-17T07:10:14.326Z,17.00
2022-12-17T07:11:08.014Z,24.00
2022-12-17T07:12:08.062Z,18.00
2022-12-17T07:13:07.961Z,29.00
2022-12-17T07:14:07.957Z,23.00
2022-12-17T07:15:07.959Z,38.00
2022-12-17T07:16:07.941Z,41.00
2022-12-17T07:17:07.909Z,39.00
2022-12-17T07:18:07.922Z,42.00
2022-12-17T07:19:07.892Z,55.00
2022-12-17T07:20:08.575Z,56.00
2022-12-17T07:21:07.865Z,67.00
2022-12-17T07:22:07.812Z,74.00
2022-12-17T07:23:07.858Z,85.00
2022-12-17T07:24:07.822Z,92.00
2022-12-17T07:25:07.803Z,99.00
2022-12-17T07:26:07.790Z,109.00
2022-12-17T07:27:07.783Z,122.00
2022-12-17T07:28:07.769Z,131.00
2022-12-17T07:29:07.780Z,130.00
2022-12-17T07:30:08.052Z,158.00
2022-12-17T07:31:07.733Z,159.00
2022-12-17T07:32:07.776Z,177.00
2022-12-17T07:33:07.734Z,193.00
2022-12-17T07:34:07.667Z,215.00
2022-12-17T07:35:07.717Z,220.00
2022-12-17T07:36:07.684Z,233.00
2022-12-17T07:37:07.653Z,245.00
2022-12-17T07:38:07.662Z,249.00
2022-12-17T07:39:07.635Z,273.00
2022-12-17T07:40:07.629Z,283.00
2022-12-17T07:41:07.643Z,305.00
2022-12-17T07:42:07.588Z,315.00
2022-12-17T07:43:07.611Z,309.00
2022-12-17T07:44:07.552Z,330.00
2022-12-17T07:45:08.246Z,338.00
2022-12-17T07:46:07.600Z,366.00
2022-12-17T07:47:07.571Z,356.00
2022-12-17T07:48:07.605Z,385.00
2022-12-17T07:49:07.506Z,396.00
2022-12-17T07:50:07.503Z,412.00
2022-12-17T07:51:07.534Z,412.00
2022-12-17T07:52:07.465Z,443.00
2022-12-17T07:53:07.494Z,457.00
2022-12-17T07:54:07.444Z,490.00
2022-12-17T07:55:07.457Z,503.00
2022-12-17T07:56:07.387Z,528.00
2022-12-17T07:57:07.407Z,546.00
2022-12-17T07:58:07.392Z,550.00
2022-12-17T07:59:07.396Z,566.00
2022-12-17T08:00:07.424Z,601.00
2022-12-17T08:01:07.420Z,614.00
2022-12-17T08:02:07.424Z,636.00
2022-12-17T08:03:07.482Z,651.00
2022-12-17T08:04:07.298Z,669.00
2022-12-17T08:05:07.312Z,665.00
2022-12-17T08:06:07.413Z,700.00
2022-12-17T08:07:12.108Z,717.00
2022-12-17T08:08:08.265Z,758.00
2022-12-17T08:09:07.273Z,782.00
2022-12-17T08:10:07.213Z,798.00
2022-12-17T08:11:07.285Z,836.00
2022-12-17T08:12:07.229Z,845.00
2022-12-17T08:13:10.953Z,865.00
2022-12-17T08:14:08.905Z,901.00
2022-12-17T08:15:07.169Z,901.00
2022-12-17T08:16:07.205Z,947.00
2022-12-17T08:17:07.195Z,965.00
2022-12-17T08:18:07.131Z,993.00
2022-12-17T08:19:07.141Z,1025.00
2022-12-17T08:20:07.107Z,1059.00
2022-12-17T08:21:07.129Z,1092.00
2022-12-17T08:22:07.052Z,1115.00
2022-12-17T08:23:07.099Z,1160.00
2022-12-17T08:24:07.350Z,1175.00
2022-12-17T08:25:07.050Z,1201.00
2022-12-17T08:26:07.026Z,1266.00
2022-12-17T08:27:07.027Z,1277.00
2022-12-17T08:28:11.149Z,1310.00
2022-12-17T08:29:08.037Z,1362.00
2022-12-17T08:30:06.982Z,1369.00
2022-12-17T08:31:07.038Z,1402.00
2022-12-17T08:32:06.921Z,1456.00
2022-12-17T08:33:06.931Z,1424.00
2022-12-17T08:34:08.186Z,1436.00
2022-12-17T08:35:06.968Z,1470.00
2022-12-17T08:36:06.893Z,1507.00
2022-12-17T08:37:06.894Z,1532.00
2022-12-17T08:38:06.871Z,1563.00
2022-12-17T08:39:06.889Z,1639.00
2022-12-17T08:40:06.847Z,1703.00
2022-12-17T08:41:06.981Z,1707.00
2022-12-17T08:42:06.802Z,1769.00
2022-12-17T08:43:06.847Z,1780.00
2022-12-17T08:44:07.494Z,1804.00
2022-12-17T08:45:06.803Z,1781.00
2022-12-17T08:46:06.859Z,1749.00
2022-12-17T08:47:06.795Z,1819.00
2022-12-17T08:48:06.751Z,1910.00
2022-12-17T08:49:06.775Z,1979.00
2022-12-17T08:50:06.703Z,1953.00
2022-12-17T08:51:06.718Z,1888.00
2022-12-17T08:52:06.708Z,1862.00
2022-12-17T08:53:06.827Z,1874.00
2022-12-17T08:54:06.635Z,1920.00
2022-12-17T08:55:06.672Z,1969.00
2022-12-17T08:56:06.608Z,1997.00
2022-12-17T08:57:06.624Z,2037.00
2022-12-17T08:58:06.615Z,2124.00
2022-12-17T08:59:06.626Z,2160.00
2022-12-17T09:00:06.582Z,2212.00
2022-12-17T09:01:07.432Z,2128.00
2022-12-17T09:02:06.753Z,2171.00
2022-12-17T09:03:06.630Z,2137.00
2022-12-17T09:04:06.511Z,2225.00
2022-12-17T09:05:06.567Z,2146.00
2022-12-17T09:06:06.513Z,2179.00
2022-12-17T09:07:06.507Z,2285.00
2022-12-17T09:08:07.183Z,2331.00
2022-12-17T09:09:06.501Z,2398.00
2022-12-17T09:10:06.427Z,2370.00
2022-12-17T09:11:06.503Z,2405.00
2022-12-17T09:12:06.407Z,2420.00
2022-12-17T09:13:06.417Z,2515.00
2022-12-17T09:14:06.413Z,2650.00
2022-12-17T09:15:06.398Z,2734.00
2022-12-17T09:16:06.384Z,2698.00
2022-12-17T09:17:06.525Z,2767.00
2022-12-17T09:18:06.327Z,2914.00
2022-12-17T09:19:06.374Z,2778.00
2022-12-17T09:20:06.307Z,2828.00
2022-12-17T09:21:06.318Z,2840.00
2022-12-17T09:22:06.306Z,2958.00
2022-12-17T09:23:06.353Z,3022.00
2022-12-17T09:24:06.251Z,2967.00
2022-12-17T09:25:06.269Z,2894.00
2022-12-17T09:26:06.256Z,2909.00
2022-12-17T09:27:06.248Z,2882.00
2022-12-17T09:28:06.236Z,2809.00
2022-12-17T09:29:06.363Z,2907.00
2022-12-17T09:30:06.179Z,3061.00
2022-12-17T09:31:06.267Z,2989.00
2022-12-17T09:32:06.155Z,2955.00
2022-12-17T09:33:06.170Z,2976.00
2022-12-17T09:34:06.157Z,3166.00
2022-12-17T09:35:06.180Z,3292.00
2022-12-17T09:36:06.133Z,3090.00
2022-12-17T09:37:06.149Z,2996.00
2022-12-17T09:38:06.081Z,3192.00
2022-12-17T09:39:06.171Z,3170.00
2022-12-17T09:40:06.078Z,3288.00
2022-12-17T09:41:06.219Z,3182.00
2022-12-17T09:42:06.031Z,3321.00
2022-12-17T09:43:06.068Z,3591.00
2022-12-17T09:44:06.001Z,3696.00
2022-12-17T09:45:06.018Z,3809.00
2022-12-17T09:46:06.032Z,3905.00
2022-12-17T09:47:06.043Z,4029.00
2022-12-17T09:48:05.978Z,4050.00
2022-12-17T09:49:05.991Z,4199.00
2022-12-17T09:50:05.923Z,3943.00
2022-12-17T09:51:05.969Z,3838.00
2022-12-17T09:52:05.900Z,3915.00
2022-12-17T09:53:06.023Z,4088.00
2022-12-17T09:54:05.899Z,4108.00
2022-12-17T09:55:05.921Z,4086.00
2022-12-17T09:56:05.855Z,3875.00
2022-12-17T09:57:05.863Z,3791.00
2022-12-17T09:58:05.850Z,3865.00
2022-12-17T09:59:05.870Z,3782.00
2022-12-17T10:00:05.829Z,3785.00
2022-12-17T10:01:05.856Z,3663.00
2022-12-17T10:02:05.988Z,3799.00
2022-12-17T10:03:05.913Z,4070.00
2022-12-17T10:04:05.744Z,3886.00
2022-12-17T10:05:05.794Z,4425.00
2022-12-17T10:06:05.752Z,4340.00
2022-12-17T10:07:05.739Z,4393.00
2022-12-17T10:08:05.732Z,4471.00
2022-12-17T10:09:05.744Z,4537.00
2022-12-17T10:10:05.673Z,4715.00
2022-12-17T10:11:05.744Z,5055.00
2022-12-17T10:12:05.656Z,4790.00
2022-12-17T10:13:05.661Z,4930.00
2022-12-17T10:14:05.655Z,4909.00
2022-12-17T10:15:05.644Z,4844.00
2022-12-17T10:16:05.665Z,4866.00
2022-12-17T10:17:11.381Z,4912.00
2022-12-17T10:18:06.567Z,5095.00
2022-12-17T10:19:05.613Z,4840.00
2022-12-17T10:20:05.549Z,4751.00
2022-12-17T10:21:05.556Z,4475.00
2022-12-17T10:22:05.554Z,4450.00
2022-12-17T10:23:05.570Z,4645.00
2022-12-17T10:24:05.515Z,4931.00
2022-12-17T10:25:05.534Z,4896.00
2022-12-17T10:26:05.467Z,4820.00
2022-12-17T10:27:05.485Z,4937.00
2022-12-17T10:28:05.465Z,5089.00
2022-12-17T10:29:05.594Z,5139.00
2022-12-17T10:30:05.419Z,5183.00
2022-12-17T10:31:05.492Z,5111.00
2022-12-17T10:32:05.388Z,5088.00
2022-12-17T10:33:05.409Z,5210.00
2022-12-17T10:34:05.385Z,5174.00
2022-12-17T10:35:05.918Z,5069.00
2022-12-17T10:36:05.367Z,5103.00
2022-12-17T10:37:05.383Z,5120.00
2022-12-17T10:38:05.323Z,5013.00
2022-12-17T10:39:05.357Z,5211.00
2022-12-17T10:40:05.290Z,5004.00
2022-12-17T10:41:05.330Z,5002.00
2022-12-17T10:42:05.287Z,4994.00
2022-12-17T10:43:05.307Z,4933.00
2022-12-17T10:44:06.189Z,4971.00
2022-12-17T10:45:05.252Z,4937.00
2022-12-17T10:46:05.250Z,4964.00
2022-12-17T10:47:05.263Z,5191.00
2022-12-17T10:48:05.229Z,5423.00
2022-12-17T10:49:11.016Z,5685.00
2022-12-17T10:50:06.181Z,5786.00
2022-12-17T10:51:05.207Z,5413.00
2022-12-17T10:52:05.131Z,5320.00
2022-12-17T10:53:05.267Z,5355.00
2022-12-17T10:54:05.138Z,5499.00
2022-12-17T10:55:05.122Z,5506.00
2022-12-17T10:56:05.111Z,5468.00
2022-12-17T10:57:05.125Z,5512.00
2022-12-17T10:58:05.052Z,5524.00
2022-12-17T10:59:05.112Z,5546.00
2022-12-17T11:00:05.058Z,5736.00
2022-12-17T11:01:05.109Z,5506.00
2022-12-17T11:02:05.082Z,5577.00
2022-12-17T11:03:05.223Z,5422.00
2022-12-17T11:04:04.973Z,5461.00
2022-12-17T11:05:05.023Z,5257.00
2022-12-17T11:06:04.981Z,5160.00
2022-12-17T11:07:04.966Z,5179.00
2022-12-17T11:08:04.960Z,5082.00
2022-12-17T11:09:04.970Z,4893.00
2022-12-17T11:10:09.275Z,5109.00
2022-12-17T11:11:06.083Z,5269.00
2022-12-17T11:12:07.428Z,4984.00
2022-12-17T11:13:04.896Z,5063.00
2022-12-17T11:14:04.880Z,4985.00
2022-12-17T11:15:04.874Z,5175.00
2022-12-17T11:16:04.908Z,5422.00
2022-12-17T11:17:04.924Z,5309.00
2022-12-17T11:18:10.903Z,5310.00
2022-12-17T11:19:05.786Z,5336.00
2022-12-17T11:20:04.833Z,5601.00
2022-12-17T11:21:04.792Z,5742.00
2022-12-17T11:22:04.776Z,5718.00
2022-12-17T11:23:04.802Z,5811.00
2022-12-17T11:24:04.755Z,5780.00
2022-12-17T11:25:04.708Z,5935.00
2022-12-17T11:26:04.762Z,5775.00
2022-12-17T11:27:04.965Z,5870.00
2022-12-17T11:28:07.743Z,5901.00
2022-12-17T11:30:26.259Z,0.00
2022-12-17T11:31:35.730Z,5786.00
2022-12-17T11:32:25.599Z,6239.00
2022-12-17T11:33:24.454Z,6238.00
2022-12-17T11:34:19.575Z,6292.00
2022-12-17T11:35:50.383Z,6416.00
2022-12-17T11:37:33.944Z,0.00
2022-12-17T11:42:30.758Z,0.00
2022-12-17T11:43:17.780Z,6336.00
2022-12-17T11:44:07.855Z,6325.00
2022-12-17T11:45:09.132Z,6329.00
2022-12-17T11:46:11.996Z,6337.00
2022-12-17T11:47:19.061Z,6367.00
2022-12-17T11:51:08.560Z,0.00
2022-12-17T11:56:12.694Z,0.00
2022-12-17T12:15:21.291Z,0.00
2022-12-17T12:16:44.152Z,6959.00
2022-12-17T12:30:19.242Z,0.00
2022-12-17T12:35:22.712Z,0.00
2022-12-17T13:22:28.211Z,0.00
2022-12-17T13:28:13.504Z,0.00
2022-12-17T13:31:22.075Z,0.00
2022-12-17T13:32:28.571Z,6018.00
2022-12-17T13:33:54.095Z,5939.00
2022-12-17T13:34:49.721Z,5946.00
2022-12-17T13:37:58.008Z,0.00
2022-12-17T13:38:48.873Z,5947.00
2022-12-17T13:42:46.865Z,0.00
2022-12-17T13:43:40.708Z,5764.00
2022-12-17T13:45:52.696Z,0.00
2022-12-17T13:46:48.102Z,5433.00
2022-12-17T13:47:59.165Z,5337.00
2022-12-17T13:48:45.919Z,5240.00
2022-12-17T13:51:39.929Z,0.00
2022-12-17T13:52:06.452Z,5136.00
2022-12-17T13:59:18.219Z,0.00
2022-12-17T14:00:15.288Z,4673.00
2022-12-17T14:01:20.658Z,4643.00
2022-12-17T14:04:05.972Z,0.00
2022-12-17T14:04:25.322Z,4413.00
2022-12-17T14:05:21.855Z,4355.00
2022-12-17T14:13:04.637Z,0.00
2022-12-17T14:13:44.456Z,3849.00
2022-12-17T14:14:46.920Z,3778.00
2022-12-17T14:15:44.764Z,3705.00
2022-12-17T14:16:48.965Z,3632.00
2022-12-17T14:17:43.782Z,3563.00
2022-12-17T14:18:41.379Z,3472.00
2022-12-17T14:19:40.628Z,3368.00
2022-12-17T14:20:40.932Z,3292.00
2022-12-17T14:21:42.134Z,3218.00
2022-12-17T14:22:43.845Z,3158.00
2022-12-17T14:23:37.235Z,3092.00
2022-12-17T14:24:59.980Z,3024.00
2022-12-17T14:25:36.202Z,2959.00
2022-12-17T14:26:36.249Z,2885.00
2022-12-17T14:27:36.180Z,2790.00
2022-12-17T14:28:36.604Z,2748.00
2022-12-17T14:29:36.133Z,2675.00
2022-12-17T14:30:36.156Z,2606.00
2022-12-17T14:31:36.469Z,2520.00
2022-12-17T14:32:36.209Z,2447.00
2022-12-17T14:33:36.083Z,2383.00
2022-12-17T14:34:36.034Z,2323.00
2022-12-17T14:35:36.021Z,2264.00
2022-12-17T14:36:36.024Z,2182.00
2022-12-17T14:37:35.974Z,2125.00
2022-12-17T14:38:38.783Z,2056.00
2022-12-17T14:39:35.954Z,2002.00
2022-12-17T14:40:35.991Z,1940.00
2022-12-17T14:41:35.953Z,1868.00
2022-12-17T14:42:35.952Z,1809.00
2022-12-17T14:43:35.922Z,1742.00
2022-12-17T14:44:36.143Z,1681.00
2022-12-17T14:45:36.001Z,1619.00
2022-12-17T14:46:35.857Z,1550.00
2022-12-17T14:47:35.920Z,1495.00
2022-12-17T14:48:36.075Z,1452.00
2022-12-17T14:49:35.847Z,1403.00
2022-12-17T14:50:35.886Z,1354.00
2022-12-17T14:51:35.839Z,1299.00